sensor_id;sensor_type;location;lat;lon;timestamp;P1;durP1;ratioP1;P2;durP2;ratioP2
7575;SDS011;3829;50.798;4.358;2023-05-07T00:01:23;7.13;;;2.77;;
7575;SDS011;3829;50.798;4.358;2023-05-07T00:03:49;8.53;;;2.87;;
7575;SDS011;3829;50.798;4.358;2023-05-07T00:06:15;12.00;;;3.10;;
7575;SDS011;3829;50.798;4.358;2023-05-07T00:08:40;6.57;;;3.30;;
7575;SDS011;3829;50.798;4.358;2023-05-07T00:11:06;8.17;;;3.07;;
7575;SDS011;3829;50.798;4.358;2023-05-07T00:13:31;4.73;;;2.27;;
7575;SDS011;3829;50.798;4.358;2023-05-07T00:16:00;11.43;;;3.40;;
7575;SDS011;3829;50.798;4.358;2023-05-07T00:18:27;6.93;;;2.60;;
7575;SDS011;3829;50.798;4.358;2023-05-07T00:20:53;8.20;;;2.70;;
7575;SDS011;3829;50.798;4.358;2023-05-07T00:23:18;5.17;;;2.70;;
7575;SDS011;3829;50.798;4.358;2023-05-07T00:25:44;4.70;;;2.70;;
7575;SDS011;3829;50.798;4.358;2023-05-07T00:28:10;8.50;;;2.67;;
7575;SDS011;3829;50.798;4.358;2023-05-07T00:30:35;6.47;;;2.93;;
7575;SDS011;3829;50.798;4.358;2023-05-07T00:33:01;7.43;;;2.50;;
7575;SDS011;3829;50.798;4.358;2023-05-07T00:35:27;5.77;;;2.20;;
7575;SDS011;3829;50.798;4.358;2023-05-07T00:37:54;7.47;;;2.80;;
7575;SDS011;3829;50.798;4.358;2023-05-07T00:40:20;4.97;;;2.57;;
7575;SDS011;3829;50.798;4.358;2023-05-07T00:42:45;7.67;;;2.40;;
7575;SDS011;3829;50.798;4.358;2023-05-07T00:45:12;6.07;;;2.63;;
7575;SDS011;3829;50.798;4.358;2023-05-07T00:47:39;9.97;;;2.60;;
7575;SDS011;3829;50.798;4.358;2023-05-07T00:50:05;6.33;;;2.90;;
7575;SDS011;3829;50.798;4.358;2023-05-07T00:52:32;8.50;;;2.70;;
7575;SDS011;3829;50.798;4.358;2023-05-07T00:54:57;9.30;;;2.90;;
7575;SDS011;3829;50.798;4.358;2023-05-07T00:57:29;6.30;;;2.90;;
7575;SDS011;3829;50.798;4.358;2023-05-07T00:59:57;5.90;;;2.87;;
7575;SDS011;3829;50.798;4.358;2023-05-07T01:02:23;8.30;;;3.03;;
7575;SDS011;3829;50.798;4.358;2023-05-07T01:04:48;6.70;;;2.80;;
7575;SDS011;3829;50.798;4.358;2023-05-07T01:07:14;6.17;;;2.50;;
7575;SDS011;3829;50.798;4.358;2023-05-07T01:09:40;8.20;;;2.80;;
7575;SDS011;3829;50.798;4.358;2023-05-07T01:12:06;6.53;;;2.63;;
7575;SDS011;3829;50.798;4.358;2023-05-07T01:14:32;4.80;;;2.80;;
7575;SDS011;3829;50.798;4.358;2023-05-07T01:16:58;7.70;;;3.40;;
7575;SDS011;3829;50.798;4.358;2023-05-07T01:19:23;8.70;;;2.97;;
7575;SDS011;3829;50.798;4.358;2023-05-07T01:21:49;7.60;;;2.57;;
7575;SDS011;3829;50.798;4.358;2023-05-07T01:24:18;6.03;;;2.33;;
7575;SDS011;3829;50.798;4.358;2023-05-07T01:26:43;10.73;;;3.20;;
7575;SDS011;3829;50.798;4.358;2023-05-07T01:29:09;7.73;;;3.00;;
7575;SDS011;3829;50.798;4.358;2023-05-07T01:31:35;6.73;;;3.57;;
7575;SDS011;3829;50.798;4.358;2023-05-07T01:34:02;12.13;;;2.80;;
7575;SDS011;3829;50.798;4.358;2023-05-07T01:36:29;6.20;;;2.53;;
7575;SDS011;3829;50.798;4.358;2023-05-07T01:38:56;6.50;;;3.97;;
7575;SDS011;3829;50.798;4.358;2023-05-07T01:41:23;4.77;;;2.80;;
7575;SDS011;3829;50.798;4.358;2023-05-07T01:43:50;6.53;;;2.87;;
7575;SDS011;3829;50.798;4.358;2023-05-07T01:46:17;7.67;;;2.70;;
7575;SDS011;3829;50.798;4.358;2023-05-07T01:48:43;8.43;;;2.87;;
7575;SDS011;3829;50.798;4.358;2023-05-07T01:51:10;7.13;;;2.93;;
7575;SDS011;3829;50.798;4.358;2023-05-07T01:53:36;7.90;;;2.90;;
7575;SDS011;3829;50.798;4.358;2023-05-07T01:56:04;6.97;;;3.10;;
7575;SDS011;3829;50.798;4.358;2023-05-07T01:58:30;5.57;;;2.50;;
7575;SDS011;3829;50.798;4.358;2023-05-07T02:00:56;7.13;;;2.67;;
7575;SDS011;3829;50.798;4.358;2023-05-07T02:03:21;8.43;;;3.10;;
7575;SDS011;3829;50.798;4.358;2023-05-07T02:05:47;5.63;;;2.67;;
7575;SDS011;3829;50.798;4.358;2023-05-07T02:08:12;5.97;;;2.50;;
7575;SDS011;3829;50.798;4.358;2023-05-07T02:10:38;6.53;;;2.50;;
7575;SDS011;3829;50.798;4.358;2023-05-07T02:13:04;6.83;;;3.30;;
7575;SDS011;3829;50.798;4.358;2023-05-07T02:15:30;9.47;;;3.03;;
7575;SDS011;3829;50.798;4.358;2023-05-07T02:17:59;4.27;;;2.53;;
7575;SDS011;3829;50.798;4.358;2023-05-07T02:20:26;7.53;;;2.80;;
7575;SDS011;3829;50.798;4.358;2023-05-07T02:22:52;7.73;;;2.60;;
7575;SDS011;3829;50.798;4.358;2023-05-07T02:25:17;9.93;;;3.73;;
7575;SDS011;3829;50.798;4.358;2023-05-07T02:27:43;6.53;;;2.80;;
7575;SDS011;3829;50.798;4.358;2023-05-07T02:30:08;6.17;;;2.97;;
7575;SDS011;3829;50.798;4.358;2023-05-07T02:32:34;10.43;;;2.67;;
7575;SDS011;3829;50.798;4.358;2023-05-07T02:35:00;4.23;;;2.60;;
7575;SDS011;3829;50.798;4.358;2023-05-07T02:37:26;10.80;;;3.07;;
7575;SDS011;3829;50.798;4.358;2023-05-07T02:39:51;5.40;;;2.93;;
7575;SDS011;3829;50.798;4.358;2023-05-07T02:42:17;9.50;;;2.80;;
7575;SDS011;3829;50.798;4.358;2023-05-07T02:44:42;5.33;;;3.03;;
7575;SDS011;3829;50.798;4.358;2023-05-07T02:47:08;7.57;;;3.00;;
7575;SDS011;3829;50.798;4.358;2023-05-07T02:49:34;7.17;;;2.73;;
7575;SDS011;3829;50.798;4.358;2023-05-07T02:52:00;5.10;;;2.50;;
7575;SDS011;3829;50.798;4.358;2023-05-07T02:54:25;7.60;;;3.00;;
7575;SDS011;3829;50.798;4.358;2023-05-07T02:56:51;6.13;;;2.43;;
7575;SDS011;3829;50.798;4.358;2023-05-07T02:59:16;8.77;;;3.03;;
7575;SDS011;3829;50.798;4.358;2023-05-07T03:01:42;9.07;;;2.63;;
7575;SDS011;3829;50.798;4.358;2023-05-07T03:04:10;8.53;;;3.10;;
7575;SDS011;3829;50.798;4.358;2023-05-07T03:06:36;8.97;;;3.10;;
7575;SDS011;3829;50.798;4.358;2023-05-07T03:09:01;7.57;;;2.50;;
7575;SDS011;3829;50.798;4.358;2023-05-07T03:11:27;6.73;;;2.53;;
7575;SDS011;3829;50.798;4.358;2023-05-07T03:13:53;7.27;;;3.07;;
7575;SDS011;3829;50.798;4.358;2023-05-07T03:16:19;8.37;;;2.47;;
7575;SDS011;3829;50.798;4.358;2023-05-07T03:18:44;5.43;;;2.77;;
7575;SDS011;3829;50.798;4.358;2023-05-07T03:21:10;7.50;;;2.63;;
7575;SDS011;3829;50.798;4.358;2023-05-07T03:23:36;8.23;;;2.53;;
7575;SDS011;3829;50.798;4.358;2023-05-07T03:26:01;4.40;;;2.27;;
7575;SDS011;3829;50.798;4.358;2023-05-07T03:28:27;5.70;;;2.80;;
7575;SDS011;3829;50.798;4.358;2023-05-07T03:30:52;6.77;;;2.20;;
7575;SDS011;3829;50.798;4.358;2023-05-07T03:33:18;4.60;;;2.23;;
7575;SDS011;3829;50.798;4.358;2023-05-07T03:35:43;7.27;;;2.67;;
7575;SDS011;3829;50.798;4.358;2023-05-07T03:38:09;7.90;;;2.87;;
7575;SDS011;3829;50.798;4.358;2023-05-07T03:40:35;6.00;;;2.40;;
7575;SDS011;3829;50.798;4.358;2023-05-07T03:43:00;7.43;;;2.77;;
7575;SDS011;3829;50.798;4.358;2023-05-07T03:45:26;6.03;;;2.60;;
7575;SDS011;3829;50.798;4.358;2023-05-07T03:47:51;5.87;;;2.50;;
7575;SDS011;3829;50.798;4.358;2023-05-07T03:50:17;8.37;;;2.27;;
7575;SDS011;3829;50.798;4.358;2023-05-07T03:52:44;5.07;;;2.77;;
7575;SDS011;3829;50.798;4.358;2023-05-07T03:55:10;11.23;;;2.90;;
7575;SDS011;3829;50.798;4.358;2023-05-07T03:57:35;10.27;;;2.80;;
7575;SDS011;3829;50.798;4.358;2023-05-07T04:00:01;4.07;;;2.50;;
7575;SDS011;3829;50.798;4.358;2023-05-07T04:02:28;6.87;;;2.30;;
7575;SDS011;3829;50.798;4.358;2023-05-07T04:04:54;5.80;;;2.40;;
7575;SDS011;3829;50.798;4.358;2023-05-07T04:07:19;6.73;;;2.60;;
7575;SDS011;3829;50.798;4.358;2023-05-07T04:09:45;7.73;;;2.40;;
7575;SDS011;3829;50.798;4.358;2023-05-07T04:12:11;8.63;;;2.80;;
7575;SDS011;3829;50.798;4.358;2023-05-07T04:14:36;5.33;;;2.27;;
7575;SDS011;3829;50.798;4.358;2023-05-07T04:17:02;4.00;;;2.70;;
7575;SDS011;3829;50.798;4.358;2023-05-07T04:19:27;8.27;;;1.90;;
7575;SDS011;3829;50.798;4.358;2023-05-07T04:21:53;6.87;;;2.47;;
7575;SDS011;3829;50.798;4.358;2023-05-07T04:24:19;10.33;;;2.70;;
7575;SDS011;3829;50.798;4.358;2023-05-07T04:26:45;5.83;;;2.17;;
7575;SDS011;3829;50.798;4.358;2023-05-07T04:29:10;3.30;;;1.87;;
7575;SDS011;3829;50.798;4.358;2023-05-07T04:31:36;6.60;;;2.30;;
7575;SDS011;3829;50.798;4.358;2023-05-07T04:34:02;8.97;;;2.13;;
7575;SDS011;3829;50.798;4.358;2023-05-07T04:36:27;4.97;;;2.03;;
7575;SDS011;3829;50.798;4.358;2023-05-07T04:38:54;7.33;;;2.57;;
7575;SDS011;3829;50.798;4.358;2023-05-07T04:41:19;9.10;;;2.50;;
7575;SDS011;3829;50.798;4.358;2023-05-07T04:43:45;6.73;;;2.60;;
7575;SDS011;3829;50.798;4.358;2023-05-07T04:46:11;5.63;;;2.63;;
7575;SDS011;3829;50.798;4.358;2023-05-07T04:48:36;6.23;;;2.10;;
7575;SDS011;3829;50.798;4.358;2023-05-07T04:51:02;7.03;;;2.30;;
7575;SDS011;3829;50.798;4.358;2023-05-07T04:53:28;3.53;;;2.00;;
7575;SDS011;3829;50.798;4.358;2023-05-07T04:55:55;3.97;;;2.20;;
7575;SDS011;3829;50.798;4.358;2023-05-07T04:58:21;5.97;;;2.50;;
7575;SDS011;3829;50.798;4.358;2023-05-07T05:00:47;4.47;;;1.87;;
7575;SDS011;3829;50.798;4.358;2023-05-07T05:03:13;6.10;;;2.10;;
7575;SDS011;3829;50.798;4.358;2023-05-07T05:05:39;7.10;;;2.20;;
7575;SDS011;3829;50.798;4.358;2023-05-07T05:08:04;4.03;;;2.10;;
7575;SDS011;3829;50.798;4.358;2023-05-07T05:10:30;5.70;;;2.43;;
7575;SDS011;3829;50.798;4.358;2023-05-07T05:12:56;5.50;;;2.10;;
7575;SDS011;3829;50.798;4.358;2023-05-07T05:15:21;7.77;;;2.30;;
7575;SDS011;3829;50.798;4.358;2023-05-07T05:17:47;3.67;;;2.13;;
7575;SDS011;3829;50.798;4.358;2023-05-07T05:20:13;2.17;;;1.80;;
7575;SDS011;3829;50.798;4.358;2023-05-07T05:22:39;10.13;;;2.10;;
7575;SDS011;3829;50.798;4.358;2023-05-07T05:25:05;6.37;;;2.30;;
7575;SDS011;3829;50.798;4.358;2023-05-07T05:27:31;7.63;;;2.30;;
7575;SDS011;3829;50.798;4.358;2023-05-07T05:29:56;7.03;;;2.37;;
7575;SDS011;3829;50.798;4.358;2023-05-07T05:32:22;6.23;;;2.20;;
7575;SDS011;3829;50.798;4.358;2023-05-07T05:34:48;4.97;;;2.10;;
7575;SDS011;3829;50.798;4.358;2023-05-07T05:37:13;6.07;;;2.27;;
7575;SDS011;3829;50.798;4.358;2023-05-07T05:39:39;6.20;;;2.00;;
7575;SDS011;3829;50.798;4.358;2023-05-07T05:42:05;6.77;;;2.40;;
7575;SDS011;3829;50.798;4.358;2023-05-07T05:44:30;5.93;;;2.27;;
7575;SDS011;3829;50.798;4.358;2023-05-07T05:46:56;6.60;;;2.13;;
7575;SDS011;3829;50.798;4.358;2023-05-07T05:49:24;6.10;;;2.27;;
7575;SDS011;3829;50.798;4.358;2023-05-07T05:51:50;4.27;;;2.23;;
7575;SDS011;3829;50.798;4.358;2023-05-07T05:54:16;7.37;;;2.37;;
7575;SDS011;3829;50.798;4.358;2023-05-07T05:56:41;6.50;;;2.70;;
7575;SDS011;3829;50.798;4.358;2023-05-07T05:59:08;5.47;;;2.60;;
7575;SDS011;3829;50.798;4.358;2023-05-07T06:01:34;6.33;;;3.07;;
7575;SDS011;3829;50.798;4.358;2023-05-07T06:04:00;8.30;;;3.50;;
7575;SDS011;3829;50.798;4.358;2023-05-07T06:06:25;7.80;;;3.97;;
7575;SDS011;3829;50.798;4.358;2023-05-07T06:08:51;6.40;;;3.20;;
7575;SDS011;3829;50.798;4.358;2023-05-07T06:11:16;8.20;;;3.50;;
7575;SDS011;3829;50.798;4.358;2023-05-07T06:13:42;11.97;;;4.33;;
7575;SDS011;3829;50.798;4.358;2023-05-07T06:16:07;6.83;;;4.20;;
7575;SDS011;3829;50.798;4.358;2023-05-07T06:18:33;5.90;;;3.57;;
7575;SDS011;3829;50.798;4.358;2023-05-07T06:21:01;9.27;;;4.17;;
7575;SDS011;3829;50.798;4.358;2023-05-07T06:23:26;10.27;;;4.77;;
7575;SDS011;3829;50.798;4.358;2023-05-07T06:25:52;10.70;;;4.33;;
7575;SDS011;3829;50.798;4.358;2023-05-07T06:28:17;9.27;;;4.17;;
7575;SDS011;3829;50.798;4.358;2023-05-07T06:30:43;12.27;;;4.50;;
7575;SDS011;3829;50.798;4.358;2023-05-07T06:33:10;12.10;;;4.23;;
7575;SDS011;3829;50.798;4.358;2023-05-07T06:35:35;8.97;;;4.47;;
7575;SDS011;3829;50.798;4.358;2023-05-07T06:38:01;9.97;;;4.93;;
7575;SDS011;3829;50.798;4.358;2023-05-07T06:40:26;11.67;;;4.73;;
7575;SDS011;3829;50.798;4.358;2023-05-07T06:42:52;13.03;;;4.70;;
7575;SDS011;3829;50.798;4.358;2023-05-07T06:45:18;7.60;;;4.27;;
7575;SDS011;3829;50.798;4.358;2023-05-07T06:47:45;10.70;;;4.70;;
7575;SDS011;3829;50.798;4.358;2023-05-07T06:50:11;11.00;;;4.90;;
7575;SDS011;3829;50.798;4.358;2023-05-07T06:52:36;10.83;;;5.30;;
7575;SDS011;3829;50.798;4.358;2023-05-07T06:55:02;11.53;;;4.70;;
7575;SDS011;3829;50.798;4.358;2023-05-07T06:57:28;7.93;;;4.70;;
7575;SDS011;3829;50.798;4.358;2023-05-07T06:59:54;9.50;;;5.77;;
7575;SDS011;3829;50.798;4.358;2023-05-07T07:02:19;13.13;;;5.00;;
7575;SDS011;3829;50.798;4.358;2023-05-07T07:04:45;10.37;;;5.33;;
7575;SDS011;3829;50.798;4.358;2023-05-07T07:07:10;8.57;;;4.83;;
7575;SDS011;3829;50.798;4.358;2023-05-07T07:09:36;9.63;;;5.03;;
7575;SDS011;3829;50.798;4.358;2023-05-07T07:12:02;10.67;;;4.97;;
7575;SDS011;3829;50.798;4.358;2023-05-07T07:14:27;12.83;;;5.30;;
7575;SDS011;3829;50.798;4.358;2023-05-07T07:16:53;13.67;;;5.57;;
7575;SDS011;3829;50.798;4.358;2023-05-07T07:19:18;10.17;;;5.33;;
7575;SDS011;3829;50.798;4.358;2023-05-07T07:21:45;14.67;;;5.47;;
7575;SDS011;3829;50.798;4.358;2023-05-07T07:24:12;10.00;;;5.20;;
7575;SDS011;3829;50.798;4.358;2023-05-07T07:26:44;8.60;;;5.23;;
7575;SDS011;3829;50.798;4.358;2023-05-07T07:29:09;10.53;;;5.57;;
7575;SDS011;3829;50.798;4.358;2023-05-07T07:31:35;13.80;;;4.93;;
7575;SDS011;3829;50.798;4.358;2023-05-07T07:34:01;12.70;;;5.53;;
7575;SDS011;3829;50.798;4.358;2023-05-07T07:36:26;9.83;;;5.07;;
7575;SDS011;3829;50.798;4.358;2023-05-07T07:38:53;11.10;;;5.80;;
7575;SDS011;3829;50.798;4.358;2023-05-07T07:41:19;11.97;;;5.07;;
7575;SDS011;3829;50.798;4.358;2023-05-07T07:43:44;12.17;;;5.77;;
7575;SDS011;3829;50.798;4.358;2023-05-07T07:46:11;9.90;;;4.77;;
7575;SDS011;3829;50.798;4.358;2023-05-07T07:48:37;9.33;;;5.20;;
7575;SDS011;3829;50.798;4.358;2023-05-07T07:51:02;11.83;;;4.50;;
7575;SDS011;3829;50.798;4.358;2023-05-07T07:53:28;9.73;;;5.07;;
7575;SDS011;3829;50.798;4.358;2023-05-07T07:55:54;9.57;;;4.70;;
7575;SDS011;3829;50.798;4.358;2023-05-07T07:58:20;14.57;;;5.00;;
7575;SDS011;3829;50.798;4.358;2023-05-07T08:00:47;9.40;;;5.67;;
7575;SDS011;3829;50.798;4.358;2023-05-07T08:03:12;10.70;;;4.93;;
7575;SDS011;3829;50.798;4.358;2023-05-07T08:05:39;11.73;;;5.13;;
7575;SDS011;3829;50.798;4.358;2023-05-07T08:08:05;9.00;;;5.33;;
7575;SDS011;3829;50.798;4.358;2023-05-07T08:10:31;7.43;;;5.37;;
7575;SDS011;3829;50.798;4.358;2023-05-07T08:12:59;10.60;;;5.07;;
7575;SDS011;3829;50.798;4.358;2023-05-07T08:15:25;8.17;;;5.50;;
7575;SDS011;3829;50.798;4.358;2023-05-07T08:17:51;7.70;;;5.17;;
7575;SDS011;3829;50.798;4.358;2023-05-07T08:20:16;10.20;;;5.20;;
7575;SDS011;3829;50.798;4.358;2023-05-07T08:22:42;9.93;;;5.40;;
7575;SDS011;3829;50.798;4.358;2023-05-07T08:25:08;9.37;;;5.80;;
7575;SDS011;3829;50.798;4.358;2023-05-07T08:27:33;7.43;;;5.20;;
7575;SDS011;3829;50.798;4.358;2023-05-07T08:29:59;7.23;;;5.33;;
7575;SDS011;3829;50.798;4.358;2023-05-07T08:32:25;9.03;;;4.90;;
7575;SDS011;3829;50.798;4.358;2023-05-07T08:34:50;7.80;;;5.03;;
7575;SDS011;3829;50.798;4.358;2023-05-07T08:37:16;9.87;;;4.83;;
7575;SDS011;3829;50.798;4.358;2023-05-07T08:39:42;7.17;;;4.97;;
7575;SDS011;3829;50.798;4.358;2023-05-07T08:42:07;7.80;;;5.33;;
7575;SDS011;3829;50.798;4.358;2023-05-07T08:44:36;9.20;;;4.53;;
7575;SDS011;3829;50.798;4.358;2023-05-07T08:47:06;11.17;;;4.73;;
7575;SDS011;3829;50.798;4.358;2023-05-07T08:49:32;9.67;;;4.87;;
7575;SDS011;3829;50.798;4.358;2023-05-07T08:51:58;8.47;;;4.20;;
7575;SDS011;3829;50.798;4.358;2023-05-07T08:54:25;7.83;;;4.47;;
7575;SDS011;3829;50.798;4.358;2023-05-07T08:56:52;6.10;;;4.10;;
7575;SDS011;3829;50.798;4.358;2023-05-07T08:59:18;5.50;;;4.33;;
7575;SDS011;3829;50.798;4.358;2023-05-07T09:01:43;7.07;;;4.20;;
7575;SDS011;3829;50.798;4.358;2023-05-07T09:04:09;6.90;;;4.60;;
7575;SDS011;3829;50.798;4.358;2023-05-07T09:06:35;9.07;;;4.77;;
7575;SDS011;3829;50.798;4.358;2023-05-07T09:09:02;6.47;;;4.20;;
7575;SDS011;3829;50.798;4.358;2023-05-07T09:11:30;7.97;;;4.47;;
7575;SDS011;3829;50.798;4.358;2023-05-07T09:13:56;7.07;;;4.13;;
7575;SDS011;3829;50.798;4.358;2023-05-07T09:16:24;6.47;;;4.30;;
7575;SDS011;3829;50.798;4.358;2023-05-07T09:18:51;7.37;;;4.47;;
7575;SDS011;3829;50.798;4.358;2023-05-07T09:21:18;5.30;;;3.50;;
7575;SDS011;3829;50.798;4.358;2023-05-07T09:23:44;5.37;;;2.80;;
7575;SDS011;3829;50.798;4.358;2023-05-07T09:26:10;3.43;;;2.70;;
7575;SDS011;3829;50.798;4.358;2023-05-07T09:28:38;6.20;;;3.33;;
7575;SDS011;3829;50.798;4.358;2023-05-07T09:31:06;5.57;;;3.23;;
7575;SDS011;3829;50.798;4.358;2023-05-07T09:33:32;6.93;;;3.50;;
7575;SDS011;3829;50.798;4.358;2023-05-07T09:35:58;5.83;;;3.90;;
7575;SDS011;3829;50.798;4.358;2023-05-07T09:38:26;7.17;;;3.83;;
7575;SDS011;3829;50.798;4.358;2023-05-07T09:41:10;9.57;;;4.10;;
7575;SDS011;3829;50.798;4.358;2023-05-07T09:43:37;7.70;;;3.67;;
7575;SDS011;3829;50.798;4.358;2023-05-07T09:46:06;10.60;;;3.90;;
7575;SDS011;3829;50.798;4.358;2023-05-07T09:48:38;8.27;;;3.87;;
7575;SDS011;3829;50.798;4.358;2023-05-07T09:51:09;8.30;;;3.60;;
7575;SDS011;3829;50.798;4.358;2023-05-07T09:53:47;4.67;;;3.27;;
7575;SDS011;3829;50.798;4.358;2023-05-07T09:56:14;10.37;;;4.03;;
7575;SDS011;3829;50.798;4.358;2023-05-07T09:58:41;8.10;;;3.40;;
7575;SDS011;3829;50.798;4.358;2023-05-07T10:01:08;5.13;;;3.10;;
7575;SDS011;3829;50.798;4.358;2023-05-07T10:03:35;6.43;;;3.27;;
7575;SDS011;3829;50.798;4.358;2023-05-07T10:06:02;6.33;;;3.70;;
7575;SDS011;3829;50.798;4.358;2023-05-07T10:08:30;8.63;;;4.00;;
7575;SDS011;3829;50.798;4.358;2023-05-07T10:10:55;7.97;;;3.90;;
7575;SDS011;3829;50.798;4.358;2023-05-07T10:13:21;7.63;;;3.87;;
7575;SDS011;3829;50.798;4.358;2023-05-07T10:15:47;5.63;;;3.63;;
7575;SDS011;3829;50.798;4.358;2023-05-07T10:18:13;7.40;;;3.53;;
7575;SDS011;3829;50.798;4.358;2023-05-07T10:20:39;3.93;;;3.50;;
7575;SDS011;3829;50.798;4.358;2023-05-07T10:23:06;6.80;;;3.10;;
7575;SDS011;3829;50.798;4.358;2023-05-07T10:25:37;4.23;;;2.80;;
7575;SDS011;3829;50.798;4.358;2023-05-07T10:28:05;6.50;;;3.30;;
7575;SDS011;3829;50.798;4.358;2023-05-07T10:30:46;6.10;;;2.90;;
7575;SDS011;3829;50.798;4.358;2023-05-07T10:33:27;6.17;;;2.73;;
7575;SDS011;3829;50.798;4.358;2023-05-07T10:35:57;6.93;;;3.00;;
7575;SDS011;3829;50.798;4.358;2023-05-07T10:38:26;5.43;;;2.87;;
7575;SDS011;3829;50.798;4.358;2023-05-07T10:40:52;3.80;;;2.70;;
7575;SDS011;3829;50.798;4.358;2023-05-07T10:43:18;6.83;;;2.93;;
7575;SDS011;3829;50.798;4.358;2023-05-07T10:45:45;5.13;;;2.40;;
7575;SDS011;3829;50.798;4.358;2023-05-07T10:51:25;3.33;;;2.63;;
7575;SDS011;3829;50.798;4.358;2023-05-07T10:54:26;4.07;;;2.73;;
7575;SDS011;3829;50.798;4.358;2023-05-07T10:56:45;3.10;;;2.20;;
7575;SDS011;3829;50.798;4.358;2023-05-07T11:02:00;2.90;;;2.40;;
7575;SDS011;3829;50.798;4.358;2023-05-07T11:04:28;5.20;;;2.30;;
7575;SDS011;3829;50.798;4.358;2023-05-07T11:15:11;4.40;;;2.43;;
7575;SDS011;3829;50.798;4.358;2023-05-07T11:17:58;3.07;;;2.30;;
7575;SDS011;3829;50.798;4.358;2023-05-07T11:23:54;3.40;;;2.03;;
7575;SDS011;3829;50.798;4.358;2023-05-07T11:26:15;3.83;;;2.03;;
7575;SDS011;3829;50.798;4.358;2023-05-07T11:28:41;5.63;;;2.30;;
7575;SDS011;3829;50.798;4.358;2023-05-07T11:31:08;5.97;;;2.23;;
7575;SDS011;3829;50.798;4.358;2023-05-07T11:33:34;2.60;;;2.23;;
7575;SDS011;3829;50.798;4.358;2023-05-07T11:36:02;4.73;;;2.67;;
7575;SDS011;3829;50.798;4.358;2023-05-07T11:38:28;6.50;;;2.80;;
7575;SDS011;3829;50.798;4.358;2023-05-07T11:40:56;4.83;;;2.20;;
7575;SDS011;3829;50.798;4.358;2023-05-07T11:43:23;6.03;;;2.73;;
7575;SDS011;3829;50.798;4.358;2023-05-07T11:45:49;4.93;;;2.50;;
7575;SDS011;3829;50.798;4.358;2023-05-07T11:48:15;7.03;;;3.00;;
7575;SDS011;3829;50.798;4.358;2023-05-07T11:50:51;4.97;;;2.53;;
7575;SDS011;3829;50.798;4.358;2023-05-07T11:53:17;4.43;;;2.20;;
7575;SDS011;3829;50.798;4.358;2023-05-07T11:55:44;6.03;;;2.40;;
7575;SDS011;3829;50.798;4.358;2023-05-07T11:58:11;4.87;;;2.90;;
7575;SDS011;3829;50.798;4.358;2023-05-07T12:00:53;2.83;;;2.30;;
7575;SDS011;3829;50.798;4.358;2023-05-07T12:03:19;4.93;;;2.60;;
7575;SDS011;3829;50.798;4.358;2023-05-07T12:05:46;3.27;;;2.30;;
7575;SDS011;3829;50.798;4.358;2023-05-07T12:08:14;3.50;;;2.63;;
7575;SDS011;3829;50.798;4.358;2023-05-07T12:10:41;4.50;;;2.70;;
7575;SDS011;3829;50.798;4.358;2023-05-07T12:13:23;5.40;;;2.60;;
7575;SDS011;3829;50.798;4.358;2023-05-07T12:15:51;2.90;;;2.40;;
7575;SDS011;3829;50.798;4.358;2023-05-07T12:18:17;3.80;;;2.80;;
7575;SDS011;3829;50.798;4.358;2023-05-07T12:20:43;3.63;;;2.60;;
7575;SDS011;3829;50.798;4.358;2023-05-07T12:23:10;3.17;;;2.53;;
7575;SDS011;3829;50.798;4.358;2023-05-07T12:25:36;5.07;;;2.90;;
7575;SDS011;3829;50.798;4.358;2023-05-07T12:28:04;4.37;;;2.90;;
7575;SDS011;3829;50.798;4.358;2023-05-07T12:30:31;5.90;;;3.53;;
7575;SDS011;3829;50.798;4.358;2023-05-07T12:32:57;3.60;;;3.10;;
7575;SDS011;3829;50.798;4.358;2023-05-07T12:35:27;4.63;;;4.00;;
7575;SDS011;3829;50.798;4.358;2023-05-07T12:37:55;7.20;;;3.63;;
7575;SDS011;3829;50.798;4.358;2023-05-07T12:40:21;4.70;;;4.17;;
7575;SDS011;3829;50.798;4.358;2023-05-07T12:42:47;5.10;;;4.57;;
7575;SDS011;3829;50.798;4.358;2023-05-07T12:45:19;7.00;;;5.17;;
7575;SDS011;3829;50.798;4.358;2023-05-07T12:47:45;6.33;;;5.33;;
7575;SDS011;3829;50.798;4.358;2023-05-07T12:50:12;6.53;;;5.47;;
7575;SDS011;3829;50.798;4.358;2023-05-07T12:52:39;6.17;;;5.57;;
7575;SDS011;3829;50.798;4.358;2023-05-07T12:55:05;7.80;;;6.17;;
7575;SDS011;3829;50.798;4.358;2023-05-07T13:00:10;10.13;;;7.10;;
7575;SDS011;3829;50.798;4.358;2023-05-07T13:02:38;9.00;;;6.97;;
7575;SDS011;3829;50.798;4.358;2023-05-07T13:05:04;7.27;;;6.57;;
7575;SDS011;3829;50.798;4.358;2023-05-07T13:07:30;8.40;;;6.67;;
7575;SDS011;3829;50.798;4.358;2023-05-07T13:09:56;6.73;;;5.63;;
7575;SDS011;3829;50.798;4.358;2023-05-07T13:12:21;8.70;;;6.30;;
7575;SDS011;3829;50.798;4.358;2023-05-07T13:14:47;9.00;;;5.90;;
7575;SDS011;3829;50.798;4.358;2023-05-07T13:17:12;7.10;;;6.03;;
7575;SDS011;3829;50.798;4.358;2023-05-07T13:19:38;7.30;;;6.50;;
7575;SDS011;3829;50.798;4.358;2023-05-07T13:22:04;10.03;;;6.67;;
7575;SDS011;3829;50.798;4.358;2023-05-07T13:24:29;7.60;;;6.57;;
7575;SDS011;3829;50.798;4.358;2023-05-07T13:26:55;9.77;;;7.53;;
7575;SDS011;3829;50.798;4.358;2023-05-07T13:29:20;8.83;;;7.73;;
7575;SDS011;3829;50.798;4.358;2023-05-07T13:31:53;7.90;;;6.90;;
7575;SDS011;3829;50.798;4.358;2023-05-07T13:34:19;8.17;;;7.37;;
7575;SDS011;3829;50.798;4.358;2023-05-07T13:36:45;10.13;;;8.07;;
7575;SDS011;3829;50.798;4.358;2023-05-07T13:39:11;9.97;;;7.43;;
7575;SDS011;3829;50.798;4.358;2023-05-07T13:41:36;9.57;;;7.90;;
7575;SDS011;3829;50.798;4.358;2023-05-07T13:44:02;9.07;;;7.57;;
7575;SDS011;3829;50.798;4.358;2023-05-07T13:46:27;11.20;;;8.43;;
7575;SDS011;3829;50.798;4.358;2023-05-07T13:48:54;8.80;;;7.43;;
7575;SDS011;3829;50.798;4.358;2023-05-07T13:51:20;14.23;;;7.73;;
7575;SDS011;3829;50.798;4.358;2023-05-07T13:53:46;9.53;;;7.53;;
7575;SDS011;3829;50.798;4.358;2023-05-07T13:56:12;13.67;;;7.03;;
7575;SDS011;3829;50.798;4.358;2023-05-07T13:58:37;10.63;;;7.53;;
7575;SDS011;3829;50.798;4.358;2023-05-07T14:01:03;8.30;;;7.40;;
7575;SDS011;3829;50.798;4.358;2023-05-07T14:03:29;10.23;;;7.77;;
7575;SDS011;3829;50.798;4.358;2023-05-07T14:05:56;7.73;;;6.80;;
7575;SDS011;3829;50.798;4.358;2023-05-07T14:08:24;10.37;;;8.17;;
7575;SDS011;3829;50.798;4.358;2023-05-07T14:10:50;8.27;;;6.73;;
7575;SDS011;3829;50.798;4.358;2023-05-07T14:13:16;7.17;;;6.20;;
7575;SDS011;3829;50.798;4.358;2023-05-07T14:15:42;7.87;;;7.00;;
7575;SDS011;3829;50.798;4.358;2023-05-07T14:18:11;10.60;;;7.20;;
7575;SDS011;3829;50.798;4.358;2023-05-07T14:20:37;9.17;;;6.03;;
7575;SDS011;3829;50.798;4.358;2023-05-07T14:23:03;8.70;;;6.23;;
7575;SDS011;3829;50.798;4.358;2023-05-07T14:25:29;10.57;;;7.63;;
7575;SDS011;3829;50.798;4.358;2023-05-07T14:27:54;8.03;;;6.97;;
7575;SDS011;3829;50.798;4.358;2023-05-07T14:30:20;6.70;;;5.73;;
7575;SDS011;3829;50.798;4.358;2023-05-07T14:32:47;8.50;;;7.03;;
7575;SDS011;3829;50.798;4.358;2023-05-07T14:35:12;8.63;;;7.10;;
7575;SDS011;3829;50.798;4.358;2023-05-07T14:37:38;9.93;;;6.70;;
7575;SDS011;3829;50.798;4.358;2023-05-07T14:40:04;9.63;;;7.50;;
7575;SDS011;3829;50.798;4.358;2023-05-07T14:42:30;9.33;;;7.03;;
7575;SDS011;3829;50.798;4.358;2023-05-07T14:44:56;7.23;;;6.50;;
7575;SDS011;3829;50.798;4.358;2023-05-07T14:47:21;8.47;;;7.30;;
7575;SDS011;3829;50.798;4.358;2023-05-07T14:49:47;9.33;;;7.17;;
7575;SDS011;3829;50.798;4.358;2023-05-07T14:52:12;9.93;;;6.53;;
7575;SDS011;3829;50.798;4.358;2023-05-07T14:54:38;6.57;;;5.83;;
7575;SDS011;3829;50.798;4.358;2023-05-07T14:57:04;8.13;;;5.63;;
7575;SDS011;3829;50.798;4.358;2023-05-07T14:59:30;7.40;;;5.67;;
7575;SDS011;3829;50.798;4.358;2023-05-07T15:01:57;6.53;;;5.40;;
7575;SDS011;3829;50.798;4.358;2023-05-07T15:04:23;5.93;;;5.33;;
7575;SDS011;3829;50.798;4.358;2023-05-07T15:06:49;6.07;;;5.47;;
7575;SDS011;3829;50.798;4.358;2023-05-07T15:09:15;8.43;;;6.03;;
7575;SDS011;3829;50.798;4.358;2023-05-07T15:11:41;8.17;;;6.20;;
7575;SDS011;3829;50.798;4.358;2023-05-07T15:14:07;7.23;;;5.90;;
7575;SDS011;3829;50.798;4.358;2023-05-07T15:16:32;7.27;;;6.57;;
7575;SDS011;3829;50.798;4.358;2023-05-07T15:18:58;7.10;;;6.40;;
7575;SDS011;3829;50.798;4.358;2023-05-07T15:21:24;8.50;;;6.30;;
7575;SDS011;3829;50.798;4.358;2023-05-07T15:23:51;7.53;;;6.40;;
7575;SDS011;3829;50.798;4.358;2023-05-07T15:26:17;8.70;;;7.40;;
7575;SDS011;3829;50.798;4.358;2023-05-07T15:28:42;10.17;;;7.33;;